sensor_id;sensor_type;location;lat;lon;timestamp;temperature;humidity
60293;DHT22;52402;52.670;6.750;2022-08-19T00:01:18;16.30;99.90
60293;DHT22;52402;52.670;6.750;2022-08-19T00:03:45;16.20;99.90
60293;DHT22;52402;52.670;6.750;2022-08-19T00:06:10;16.20;99.90
60293;DHT22;52402;52.670;6.750;2022-08-19T00:08:36;16.10;99.90
60293;DHT22;52402;52.670;6.750;2022-08-19T00:11:02;16.10;99.90
60293;DHT22;52402;52.670;6.750;2022-08-19T00:13:28;16.10;99.90
60293;DHT22;52402;52.670;6.750;2022-08-19T00:15:55;16.00;99.90
60293;DHT22;52402;52.670;6.750;2022-08-19T00:18:21;16.00;99.90
60293;DHT22;52402;52.670;6.750;2022-08-19T00:20:46;16.00;99.90
60293;DHT22;52402;52.670;6.750;2022-08-19T00:23:12;16.00;99.90
60293;DHT22;52402;52.670;6.750;2022-08-19T00:25:38;16.00;99.90
60293;DHT22;52402;52.670;6.750;2022-08-19T00:28:04;16.00;99.90
60293;DHT22;52402;52.670;6.750;2022-08-19T00:30:30;15.90;99.90
60293;DHT22;52402;52.670;6.750;2022-08-19T00:32:56;15.80;99.90
60293;DHT22;52402;52.670;6.750;2022-08-19T00:35:22;15.80;99.90
60293;DHT22;52402;52.670;6.750;2022-08-19T00:37:49;15.80;99.90
60293;DHT22;52402;52.670;6.750;2022-08-19T00:40:16;15.80;99.90
60293;DHT22;52402;52.670;6.750;2022-08-19T00:42:43;15.70;99.90
60293;DHT22;52402;52.670;6.750;2022-08-19T00:45:16;15.80;99.90
60293;DHT22;52402;52.670;6.750;2022-08-19T00:47:43;15.80;99.90
60293;DHT22;52402;52.670;6.750;2022-08-19T00:50:11;15.80;99.90
60293;DHT22;52402;52.670;6.750;2022-08-19T00:52:43;15.90;99.90
60293;DHT22;52402;52.670;6.750;2022-08-19T00:55:15;15.90;99.90
60293;DHT22;52402;52.670;6.750;2022-08-19T00:57:45;15.90;99.90
60293;DHT22;52402;52.670;6.750;2022-08-19T01:00:15;15.90;99.90
60293;DHT22;52402;52.670;6.750;2022-08-19T01:02:42;15.90;99.90
60293;DHT22;52402;52.670;6.750;2022-08-19T01:05:12;15.80;99.90
60293;DHT22;52402;52.670;6.750;2022-08-19T01:07:39;15.80;99.90
60293;DHT22;52402;52.670;6.750;2022-08-19T01:10:10;15.80;99.90
60293;DHT22;52402;52.670;6.750;2022-08-19T01:12:37;15.70;99.90
60293;DHT22;52402;52.670;6.750;2022-08-19T01:15:06;15.70;99.90
60293;DHT22;52402;52.670;6.750;2022-08-19T01:17:33;15.70;99.90
60293;DHT22;52402;52.670;6.750;2022-08-19T01:19:59;15.70;99.90
60293;DHT22;52402;52.670;6.750;2022-08-19T01:22:31;15.60;99.90
60293;DHT22;52402;52.670;6.750;2022-08-19T01:25:01;15.60;99.90
60293;DHT22;52402;52.670;6.750;2022-08-19T01:27:27;15.60;99.90
60293;DHT22;52402;52.670;6.750;2022-08-19T01:30:02;15.50;99.90
60293;DHT22;52402;52.670;6.750;2022-08-19T01:32:28;15.50;99.90
60293;DHT22;52402;52.670;6.750;2022-08-19T01:34:55;15.40;99.90
60293;DHT22;52402;52.670;6.750;2022-08-19T01:37:21;15.40;99.90
60293;DHT22;52402;52.670;6.750;2022-08-19T01:39:46;15.30;99.90
60293;DHT22;52402;52.670;6.750;2022-08-19T01:42:12;15.30;99.90
60293;DHT22;52402;52.670;6.750;2022-08-19T01:44:40;15.20;99.90
60293;DHT22;52402;52.670;6.750;2022-08-19T01:47:07;15.30;99.90
60293;DHT22;52402;52.670;6.750;2022-08-19T01:49:35;15.30;99.90
60293;DHT22;52402;52.670;6.750;2022-08-19T01:52:04;15.30;99.90
60293;DHT22;52402;52.670;6.750;2022-08-19T01:54:30;15.30;99.90
60293;DHT22;52402;52.670;6.750;2022-08-19T01:57:00;15.30;99.90
60293;DHT22;52402;52.670;6.750;2022-08-19T01:59:27;15.30;99.90
60293;DHT22;52402;52.670;6.750;2022-08-19T02:01:53;15.30;99.90
60293;DHT22;52402;52.670;6.750;2022-08-19T02:04:19;15.30;99.90
60293;DHT22;52402;52.670;6.750;2022-08-19T02:06:46;15.20;99.90
60293;DHT22;52402;52.670;6.750;2022-08-19T02:09:11;15.20;99.90
60293;DHT22;52402;52.670;6.750;2022-08-19T02:11:37;15.10;99.90
60293;DHT22;52402;52.670;6.750;2022-08-19T02:14:06;15.10;99.90
60293;DHT22;52402;52.670;6.750;2022-08-19T02:16:32;15.10;99.90
60293;DHT22;52402;52.670;6.750;2022-08-19T02:18:58;15.00;99.90
60293;DHT22;52402;52.670;6.750;2022-08-19T02:21:28;15.00;99.90
60293;DHT22;52402;52.670;6.750;2022-08-19T02:23:54;15.00;99.90
60293;DHT22;52402;52.670;6.750;2022-08-19T02:26:21;14.90;99.90
60293;DHT22;52402;52.670;6.750;2022-08-19T02:28:47;14.90;99.90
60293;DHT22;52402;52.670;6.750;2022-08-19T02:31:17;14.90;99.90
60293;DHT22;52402;52.670;6.750;2022-08-19T02:33:43;15.00;99.90
60293;DHT22;52402;52.670;6.750;2022-08-19T02:36:10;14.90;99.90
60293;DHT22;52402;52.670;6.750;2022-08-19T02:38:36;15.00;99.90
60293;DHT22;52402;52.670;6.750;2022-08-19T02:41:05;14.90;99.90
60293;DHT22;52402;52.670;6.750;2022-08-19T02:43:33;14.90;99.90
60293;DHT22;52402;52.670;6.750;2022-08-19T02:46:20;14.90;99.90
60293;DHT22;52402;52.670;6.750;2022-08-19T02:48:52;14.90;99.90
60293;DHT22;52402;52.670;6.750;2022-08-19T02:51:27;14.80;99.90
60293;DHT22;52402;52.670;6.750;2022-08-19T02:53:55;14.80;99.90
60293;DHT22;52402;52.670;6.750;2022-08-19T02:56:21;14.80;99.90
60293;DHT22;52402;52.670;6.750;2022-08-19T02:58:48;14.80;99.90
60293;DHT22;52402;52.670;6.750;2022-08-19T03:03:50;14.90;99.90
60293;DHT22;52402;52.670;6.750;2022-08-19T03:06:16;14.80;99.90
60293;DHT22;52402;52.670;6.750;2022-08-19T03:08:44;14.70;99.90
60293;DHT22;52402;52.670;6.750;2022-08-19T03:11:15;14.70;99.90
60293;DHT22;52402;52.670;6.750;2022-08-19T03:13:41;14.70;99.90
60293;DHT22;52402;52.670;6.750;2022-08-19T03:16:09;14.80;99.90
60293;DHT22;52402;52.670;6.750;2022-08-19T03:18:35;14.70;99.90
60293;DHT22;52402;52.670;6.750;2022-08-19T03:21:00;14.80;99.90
60293;DHT22;52402;52.670;6.750;2022-08-19T03:23:26;14.70;99.90
60293;DHT22;52402;52.670;6.750;2022-08-19T03:25:53;14.70;99.90
60293;DHT22;52402;52.670;6.750;2022-08-19T03:28:20;14.80;99.90
60293;DHT22;52402;52.670;6.750;2022-08-19T03:31:07;14.80;99.90
60293;DHT22;52402;52.670;6.750;2022-08-19T03:33:34;14.80;99.90
60293;DHT22;52402;52.670;6.750;2022-08-19T03:36:20;14.80;99.90
60293;DHT22;52402;52.670;6.750;2022-08-19T03:38:51;14.70;99.90
60293;DHT22;52402;52.670;6.750;2022-08-19T03:41:21;14.70;99.90
60293;DHT22;52402;52.670;6.750;2022-08-19T03:43:47;14.70;99.90
60293;DHT22;52402;52.670;6.750;2022-08-19T03:46:18;14.70;99.90
60293;DHT22;52402;52.670;6.750;2022-08-19T03:48:47;14.70;99.90
60293;DHT22;52402;52.670;6.750;2022-08-19T03:51:18;14.70;99.90
60293;DHT22;52402;52.670;6.750;2022-08-19T03:53:45;14.70;99.90
60293;DHT22;52402;52.670;6.750;2022-08-19T03:56:13;14.60;99.90
60293;DHT22;52402;52.670;6.750;2022-08-19T03:58:39;14.60;99.90
60293;DHT22;52402;52.670;6.750;2022-08-19T04:01:11;14.60;99.90
60293;DHT22;52402;52.670;6.750;2022-08-19T04:03:37;14.60;99.90
60293;DHT22;52402;52.670;6.750;2022-08-19T04:06:13;14.60;99.90
60293;DHT22;52402;52.670;6.750;2022-08-19T04:08:40;14.60;99.90
60293;DHT22;52402;52.670;6.750;2022-08-19T04:11:08;14.60;99.90
60293;DHT22;52402;52.670;6.750;2022-08-19T04:13:35;14.50;99.90
60293;DHT22;52402;52.670;6.750;2022-08-19T04:16:00;14.40;99.90
60293;DHT22;52402;52.670;6.750;2022-08-19T04:18:26;14.40;99.90
60293;DHT22;52402;52.670;6.750;2022-08-19T04:20:52;14.30;99.90
60293;DHT22;52402;52.670;6.750;2022-08-19T04:23:17;14.30;99.90
60293;DHT22;52402;52.670;6.750;2022-08-19T04:25:44;14.30;99.90
60293;DHT22;52402;52.670;6.750;2022-08-19T04:28:12;14.40;99.90
60293;DHT22;52402;52.670;6.750;2022-08-19T04:30:47;14.40;99.90
60293;DHT22;52402;52.670;6.750;2022-08-19T04:33:14;14.40;99.90
60293;DHT22;52402;52.670;6.750;2022-08-19T04:35:43;14.30;99.90
60293;DHT22;52402;52.670;6.750;2022-08-19T04:38:10;14.30;99.90
60293;DHT22;52402;52.670;6.750;2022-08-19T04:40:44;14.20;99.90
60293;DHT22;52402;52.670;6.750;2022-08-19T04:43:28;14.20;99.90
60293;DHT22;52402;52.670;6.750;2022-08-19T04:45:55;14.30;99.90
60293;DHT22;52402;52.670;6.750;2022-08-19T04:48:21;14.30;99.90
60293;DHT22;52402;52.670;6.750;2022-08-19T04:50:52;14.30;99.90
60293;DHT22;52402;52.670;6.750;2022-08-19T04:53:33;14.20;99.90
60293;DHT22;52402;52.670;6.750;2022-08-19T04:56:03;14.20;99.90
60293;DHT22;52402;52.670;6.750;2022-08-19T04:58:29;14.20;99.90
60293;DHT22;52402;52.670;6.750;2022-08-19T05:00:54;14.20;99.90
60293;DHT22;52402;52.670;6.750;2022-08-19T05:03:20;14.10;99.90
60293;DHT22;52402;52.670;6.750;2022-08-19T05:05:47;14.10;99.90
60293;DHT22;52402;52.670;6.750;2022-08-19T05:08:17;14.10;99.90
60293;DHT22;52402;52.670;6.750;2022-08-19T05:10:49;14.20;99.90
60293;DHT22;52402;52.670;6.750;2022-08-19T05:13:17;14.20;99.90
60293;DHT22;52402;52.670;6.750;2022-08-19T05:15:45;14.20;99.90
60293;DHT22;52402;52.670;6.750;2022-08-19T05:18:18;14.30;99.90
60293;DHT22;52402;52.670;6.750;2022-08-19T05:21:08;14.30;99.90
60293;DHT22;52402;52.670;6.750;2022-08-19T05:23:53;14.30;99.90
60293;DHT22;52402;52.670;6.750;2022-08-19T05:26:19;14.30;99.90
60293;DHT22;52402;52.670;6.750;2022-08-19T05:28:44;14.30;99.90
60293;DHT22;52402;52.670;6.750;2022-08-19T05:31:10;14.30;99.90
60293;DHT22;52402;52.670;6.750;2022-08-19T05:33:36;14.30;99.90
60293;DHT22;52402;52.670;6.750;2022-08-19T05:36:02;14.30;99.90
60293;DHT22;52402;52.670;6.750;2022-08-19T05:38:28;14.40;99.90
60293;DHT22;52402;52.670;6.750;2022-08-19T05:40:55;14.40;99.90
60293;DHT22;52402;52.670;6.750;2022-08-19T05:43:20;14.40;99.90
60293;DHT22;52402;52.670;6.750;2022-08-19T05:45:46;14.50;99.90
60293;DHT22;52402;52.670;6.750;2022-08-19T05:48:12;14.50;99.90
60293;DHT22;52402;52.670;6.750;2022-08-19T05:50:40;14.50;99.90
60293;DHT22;52402;52.670;6.750;2022-08-19T05:53:06;14.60;99.90
60293;DHT22;52402;52.670;6.750;2022-08-19T05:55:34;14.60;99.90
60293;DHT22;52402;52.670;6.750;2022-08-19T05:58:01;14.70;99.90
60293;DHT22;52402;52.670;6.750;2022-08-19T06:00:27;14.70;99.90
60293;DHT22;52402;52.670;6.750;2022-08-19T06:02:53;14.70;99.90
60293;DHT22;52402;52.670;6.750;2022-08-19T06:05:21;14.80;99.90
60293;DHT22;52402;52.670;6.750;2022-08-19T06:07:47;14.80;99.90
60293;DHT22;52402;52.670;6.750;2022-08-19T06:10:13;14.90;99.90
60293;DHT22;52402;52.670;6.750;2022-08-19T06:12:39;15.00;99.90
60293;DHT22;52402;52.670;6.750;2022-08-19T06:15:08;15.10;99.90
60293;DHT22;52402;52.670;6.750;2022-08-19T06:17:34;15.20;99.90
60293;DHT22;52402;52.670;6.750;2022-08-19T06:20:03;15.20;99.90
60293;DHT22;52402;52.670;6.750;2022-08-19T06:22:29;15.40;99.90
60293;DHT22;52402;52.670;6.750;2022-08-19T06:24:55;15.50;99.90
60293;DHT22;52402;52.670;6.750;2022-08-19T06:27:21;15.60;99.90
60293;DHT22;52402;52.670;6.750;2022-08-19T06:29:47;15.70;99.90
60293;DHT22;52402;52.670;6.750;2022-08-19T06:32:15;15.80;99.90
60293;DHT22;52402;52.670;6.750;2022-08-19T06:34:42;15.90;99.90
60293;DHT22;52402;52.670;6.750;2022-08-19T06:37:08;16.00;99.90
60293;DHT22;52402;52.670;6.750;2022-08-19T06:39:38;16.10;99.90
60293;DHT22;52402;52.670;6.750;2022-08-19T06:42:06;16.20;99.90
60293;DHT22;52402;52.670;6.750;2022-08-19T06:44:35;16.30;99.90
60293;DHT22;52402;52.670;6.750;2022-08-19T06:47:06;16.40;99.90
60293;DHT22;52402;52.670;6.750;2022-08-19T06:49:33;16.60;99.90
60293;DHT22;52402;52.670;6.750;2022-08-19T06:51:58;16.60;99.90
60293;DHT22;52402;52.670;6.750;2022-08-19T06:54:25;16.70;99.90
60293;DHT22;52402;52.670;6.750;2022-08-19T06:56:52;16.80;99.90
60293;DHT22;52402;52.670;6.750;2022-08-19T06:59:21;16.90;99.90
60293;DHT22;52402;52.670;6.750;2022-08-19T07:01:52;17.00;99.90
60293;DHT22;52402;52.670;6.750;2022-08-19T07:04:24;17.10;99.90
60293;DHT22;52402;52.670;6.750;2022-08-19T07:07:01;17.20;99.90
60293;DHT22;52402;52.670;6.750;2022-08-19T07:09:28;17.30;99.90
60293;DHT22;52402;52.670;6.750;2022-08-19T07:11:55;17.30;99.90
60293;DHT22;52402;52.670;6.750;2022-08-19T07:14:24;17.40;99.90
60293;DHT22;52402;52.670;6.750;2022-08-19T07:16:52;17.40;99.90
60293;DHT22;52402;52.670;6.750;2022-08-19T07:19:19;17.50;99.90
60293;DHT22;52402;52.670;6.750;2022-08-19T07:21:47;17.60;99.90
60293;DHT22;52402;52.670;6.750;2022-08-19T07:24:13;17.70;99.90
60293;DHT22;52402;52.670;6.750;2022-08-19T07:26:42;17.70;99.90
60293;DHT22;52402;52.670;6.750;2022-08-19T07:29:08;17.80;99.90
60293;DHT22;52402;52.670;6.750;2022-08-19T07:31:33;18.00;99.90
60293;DHT22;52402;52.670;6.750;2022-08-19T07:34:03;18.00;99.90
60293;DHT22;52402;52.670;6.750;2022-08-19T07:36:34;18.10;99.90
60293;DHT22;52402;52.670;6.750;2022-08-19T07:39:04;18.20;99.90
60293;DHT22;52402;52.670;6.750;2022-08-19T07:41:30;18.30;99.90
60293;DHT22;52402;52.670;6.750;2022-08-19T07:43:58;18.40;99.90
60293;DHT22;52402;52.670;6.750;2022-08-19T07:46:24;18.50;99.90
60293;DHT22;52402;52.670;6.750;2022-08-19T07:48:51;18.60;99.90
60293;DHT22;52402;52.670;6.750;2022-08-19T07:51:19;18.70;99.90
60293;DHT22;52402;52.670;6.750;2022-08-19T07:53:47;18.80;99.90
60293;DHT22;52402;52.670;6.750;2022-08-19T07:56:13;19.00;99.90
60293;DHT22;52402;52.670;6.750;2022-08-19T07:58:41;19.10;99.90
60293;DHT22;52402;52.670;6.750;2022-08-19T08:01:10;19.30;99.90
60293;DHT22;52402;52.670;6.750;2022-08-19T08:03:36;19.40;99.90
60293;DHT22;52402;52.670;6.750;2022-08-19T08:06:21;19.60;99.90
60293;DHT22;52402;52.670;6.750;2022-08-19T08:09:06;19.70;99.90
60293;DHT22;52402;52.670;6.750;2022-08-19T08:11:40;19.80;99.90
60293;DHT22;52402;52.670;6.750;2022-08-19T08:14:07;19.90;99.90
60293;DHT22;52402;52.670;6.750;2022-08-19T08:16:37;20.00;99.90
60293;DHT22;52402;52.670;6.750;2022-08-19T08:19:04;20.10;99.90
60293;DHT22;52402;52.670;6.750;2022-08-19T08:21:30;20.30;99.90
60293;DHT22;52402;52.670;6.750;2022-08-19T08:23:56;20.40;99.90
60293;DHT22;52402;52.670;6.750;2022-08-19T08:26:21;20.40;99.90
60293;DHT22;52402;52.670;6.750;2022-08-19T08:28:47;20.50;99.90
60293;DHT22;52402;52.670;6.750;2022-08-19T08:31:13;20.70;99.90
60293;DHT22;52402;52.670;6.750;2022-08-19T08:33:40;20.80;99.90
60293;DHT22;52402;52.670;6.750;2022-08-19T08:36:08;20.90;99.90
60293;DHT22;52402;52.670;6.750;2022-08-19T08:38:35;20.90;99.90
60293;DHT22;52402;52.670;6.750;2022-08-19T08:41:09;21.00;99.90
60293;DHT22;52402;52.670;6.750;2022-08-19T08:43:39;21.10;99.90
60293;DHT22;52402;52.670;6.750;2022-08-19T08:49:36;21.30;99.90
60293;DHT22;52402;52.670;6.750;2022-08-19T08:52:33;21.40;99.90
60293;DHT22;52402;52.670;6.750;2022-08-19T08:55:05;21.50;99.90
60293;DHT22;52402;52.670;6.750;2022-08-19T08:57:50;21.50;99.90
60293;DHT22;52402;52.670;6.750;2022-08-19T09:00:41;21.60;99.90
60293;DHT22;52402;52.670;6.750;2022-08-19T09:03:21;21.70;99.90
60293;DHT22;52402;52.670;6.750;2022-08-19T09:08:20;21.80;99.90
60293;DHT22;52402;52.670;6.750;2022-08-19T09:10:52;21.80;99.90
60293;DHT22;52402;52.670;6.750;2022-08-19T09:13:41;21.90;99.90
60293;DHT22;52402;52.670;6.750;2022-08-19T09:16:21;22.00;99.90
60293;DHT22;52402;52.670;6.750;2022-08-19T09:18:55;22.10;99.90
60293;DHT22;52402;52.670;6.750;2022-08-19T09:21:23;22.10;99.90
60293;DHT22;52402;52.670;6.750;2022-08-19T09:23:49;22.20;99.90
60293;DHT22;52402;52.670;6.750;2022-08-19T09:26:17;22.30;99.90
60293;DHT22;52402;52.670;6.750;2022-08-19T09:28:45;22.40;99.90
60293;DHT22;52402;52.670;6.750;2022-08-19T09:31:12;22.40;99.90
60293;DHT22;52402;52.670;6.750;2022-08-19T09:33:38;22.50;99.90
60293;DHT22;52402;52.670;6.750;2022-08-19T09:36:08;22.60;99.90
60293;DHT22;52402;52.670;6.750;2022-08-19T09:38:35;22.60;99.90
60293;DHT22;52402;52.670;6.750;2022-08-19T09:41:06;22.60;99.90
60293;DHT22;52402;52.670;6.750;2022-08-19T09:43:33;22.80;99.90
60293;DHT22;52402;52.670;6.750;2022-08-19T09:46:03;22.90;99.90
60293;DHT22;52402;52.670;6.750;2022-08-19T09:48:31;23.00;99.90
60293;DHT22;52402;52.670;6.750;2022-08-19T09:51:12;23.10;99.90
60293;DHT22;52402;52.670;6.750;2022-08-19T09:53:41;23.20;99.90
60293;DHT22;52402;52.670;6.750;2022-08-19T09:56:08;23.20;99.90
60293;DHT22;52402;52.670;6.750;2022-08-19T09:58:34;23.30;99.90
60293;DHT22;52402;52.670;6.750;2022-08-19T10:01:01;23.50;99.90
60293;DHT22;52402;52.670;6.750;2022-08-19T10:03:29;23.50;99.90
60293;DHT22;52402;52.670;6.750;2022-08-19T10:05:56;23.60;99.90
60293;DHT22;52402;52.670;6.750;2022-08-19T10:08:25;23.60;99.90
60293;DHT22;52402;52.670;6.750;2022-08-19T10:10:51;23.80;99.90
60293;DHT22;52402;52.670;6.750;2022-08-19T10:13:20;23.80;99.90
60293;DHT22;52402;52.670;6.750;2022-08-19T10:15:54;23.90;99.90
60293;DHT22;52402;52.670;6.750;2022-08-19T10:18:22;23.90;99.90
60293;DHT22;52402;52.670;6.750;2022-08-19T10:20:49;24.10;99.90
60293;DHT22;52402;52.670;6.750;2022-08-19T10:23:16;24.20;99.90
60293;DHT22;52402;52.670;6.750;2022-08-19T10:25:42;24.40;99.90
60293;DHT22;52402;52.670;6.750;2022-08-19T10:28:09;24.50;99.90
60293;DHT22;52402;52.670;6.750;2022-08-19T10:30:40;24.60;99.90
60293;DHT22;52402;52.670;6.750;2022-08-19T10:33:06;24.70;99.90
60293;DHT22;52402;52.670;6.750;2022-08-19T10:35:32;24.80;99.90
60293;DHT22;52402;52.670;6.750;2022-08-19T10:37:58;24.90;99.90
60293;DHT22;52402;52.670;6.750;2022-08-19T10:40:26;25.10;99.90
60293;DHT22;52402;52.670;6.750;2022-08-19T10:42:53;25.10;99.90
60293;DHT22;52402;52.670;6.750;2022-08-19T10:45:19;25.30;99.90
60293;DHT22;52402;52.670;6.750;2022-08-19T10:47:47;25.40;99.90
60293;DHT22;52402;52.670;6.750;2022-08-19T10:50:13;25.50;99.90
60293;DHT22;52402;52.670;6.750;2022-08-19T10:52:57;25.50;99.90
60293;DHT22;52402;52.670;6.750;2022-08-19T10:55:24;25.60;99.80
60293;DHT22;52402;52.670;6.750;2022-08-19T10:58:16;25.70;99.90
60293;DHT22;52402;52.670;6.750;2022-08-19T11:00:57;25.90;99.90
60293;DHT22;52402;52.670;6.750;2022-08-19T11:03:38;26.00;99.80
60293;DHT22;52402;52.670;6.750;2022-08-19T11:06:16;26.30;99.90
60293;DHT22;52402;52.670;6.750;2022-08-19T11:08:42;26.50;99.00
60293;DHT22;52402;52.670;6.750;2022-08-19T11:11:10;26.60;98.40
60293;DHT22;52402;52.670;6.750;2022-08-19T11:13:40;26.70;98.30
60293;DHT22;52402;52.670;6.750;2022-08-19T11:16:07;26.90;98.00
60293;DHT22;52402;52.670;6.750;2022-08-19T11:18:38;27.00;98.00
60293;DHT22;52402;52.670;6.750;2022-08-19T11:21:10;26.90;97.90
60293;DHT22;52402;52.670;6.750;2022-08-19T11:23:36;27.10;97.30
60293;DHT22;52402;52.670;6.750;2022-08-19T11:26:01;27.30;97.10
60293;DHT22;52402;52.670;6.750;2022-08-19T11:28:27;27.50;96.40
60293;DHT22;52402;52.670;6.750;2022-08-19T11:30:53;27.70;96.30
60293;DHT22;52402;52.670;6.750;2022-08-19T11:33:19;27.80;95.90
60293;DHT22;52402;52.670;6.750;2022-08-19T11:35:45;27.80;95.60
60293;DHT22;52402;52.670;6.750;2022-08-19T11:38:10;27.90;95.50
60293;DHT22;52402;52.670;6.750;2022-08-19T11:40:36;28.10;95.20
60293;DHT22;52402;52.670;6.750;2022-08-19T11:43:02;28.30;94.70
60293;DHT22;52402;52.670;6.750;2022-08-19T11:45:28;28.50;94.70
60293;DHT22;52402;52.670;6.750;2022-08-19T11:47:55;28.70;93.60
60293;DHT22;52402;52.670;6.750;2022-08-19T11:50:21;28.80;93.30
60293;DHT22;52402;52.670;6.750;2022-08-19T11:52:48;28.80;93.70
60293;DHT22;52402;52.670;6.750;2022-08-19T11:55:15;28.50;93.40
60293;DHT22;52402;52.670;6.750;2022-08-19T11:57:41;28.30;93.60
60293;DHT22;52402;52.670;6.750;2022-08-19T12:00:08;28.10;93.50
60293;DHT22;52402;52.670;6.750;2022-08-19T12:02:35;27.70;93.40
60293;DHT22;52402;52.670;6.750;2022-08-19T12:05:01;27.80;93.50
60293;DHT22;52402;52.670;6.750;2022-08-19T12:07:29;27.60;93.80
60293;DHT22;52402;52.670;6.750;2022-08-19T12:09:58;27.70;94.00
60293;DHT22;52402;52.670;6.750;2022-08-19T12:12:24;27.90;94.40
60293;DHT22;52402;52.670;6.750;2022-08-19T12:14:50;28.10;93.90
60293;DHT22;52402;52.670;6.750;2022-08-19T12:17:22;28.20;93.30
60293;DHT22;52402;52.670;6.750;2022-08-19T12:19:48;28.40;93.00
60293;DHT22;52402;52.670;6.750;2022-08-19T12:22:14;28.60;93.10
60293;DHT22;52402;52.670;6.750;2022-08-19T12:24:39;28.60;92.20
60293;DHT22;52402;52.670;6.750;2022-08-19T12:27:05;28.60;91.80
60293;DHT22;52402;52.670;6.750;2022-08-19T12:29:30;28.70;91.80
60293;DHT22;52402;52.670;6.750;2022-08-19T12:31:58;28.90;92.50
60293;DHT22;52402;52.670;6.750;2022-08-19T12:34:31;28.70;90.90
60293;DHT22;52402;52.670;6.750;2022-08-19T12:36:58;28.30;91.90
60293;DHT22;52402;52.670;6.750;2022-08-19T12:39:25;28.10;92.10
60293;DHT22;52402;52.670;6.750;2022-08-19T12:41:51;28.00;92.80
60293;DHT22;52402;52.670;6.750;2022-08-19T12:44:19;28.40;93.00
60293;DHT22;52402;52.670;6.750;2022-08-19T12:46:46;28.50;92.50
60293;DHT22;52402;52.670;6.750;2022-08-19T12:49:12;28.50;92.10
60293;DHT22;52402;52.670;6.750;2022-08-19T12:51:37;28.80;92.70
60293;DHT22;52402;52.670;6.750;2022-08-19T12:54:03;28.90;92.30
60293;DHT22;52402;52.670;6.750;2022-08-19T12:56:30;28.80;92.10
60293;DHT22;52402;52.670;6.750;2022-08-19T12:58:56;28.70;91.80
60293;DHT22;52402;52.670;6.750;2022-08-19T13:01:22;28.70;92.00
60293;DHT22;52402;52.670;6.750;2022-08-19T13:03:47;28.50;91.80
60293;DHT22;52402;52.670;6.750;2022-08-19T13:06:14;28.50;92.30
60293;DHT22;52402;52.670;6.750;2022-08-19T13:08:40;28.40;92.50
60293;DHT22;52402;52.670;6.750;2022-08-19T13:11:11;27.90;92.40
60293;DHT22;52402;52.670;6.750;2022-08-19T13:13:40;27.90;93.20
60293;DHT22;52402;52.670;6.750;2022-08-19T13:16:07;27.80;92.80
60293;DHT22;52402;52.670;6.750;2022-08-19T13:18:34;27.80;93.50
60293;DHT22;52402;52.670;6.750;2022-08-19T13:21:04;27.80;93.20
60293;DHT22;52402;52.670;6.750;2022-08-19T13:23:30;27.70;93.30
60293;DHT22;52402;52.670;6.750;2022-08-19T13:26:02;27.80;93.50
60293;DHT22;52402;52.670;6.750;2022-08-19T13:28:28;27.90;93.90
60293;DHT22;52402;52.670;6.750;2022-08-19T13:31:18;28.00;92.90
60293;DHT22;52402;52.670;6.750;2022-08-19T13:34:03;28.10;94.00
60293;DHT22;52402;52.670;6.750;2022-08-19T13:36:29;28.20;93.00
60293;DHT22;52402;52.670;6.750;2022-08-19T13:38:55;28.10;92.80
60293;DHT22;52402;52.670;6.750;2022-08-19T13:41:21;28.20;92.40
60293;DHT22;52402;52.670;6.750;2022-08-19T13:43:47;28.10;91.90
60293;DHT22;52402;52.670;6.750;2022-08-19T13:46:13;28.20;92.00
60293;DHT22;52402;52.670;6.750;2022-08-19T13:48:39;28.30;91.90
60293;DHT22;52402;52.670;6.750;2022-08-19T13:51:07;28.20;92.00
60293;DHT22;52402;52.670;6.750;2022-08-19T13:53:36;28.40;92.60
60293;DHT22;52402;52.670;6.750;2022-08-19T13:56:08;28.40;92.60
60293;DHT22;52402;52.670;6.750;2022-08-19T13:58:34;28.20;91.00
60293;DHT22;52402;52.670;6.750;2022-08-19T14:00:59;28.10;91.80
60293;DHT22;52402;52.670;6.750;2022-08-19T14:03:27;28.40;91.30
60293;DHT22;52402;52.670;6.750;2022-08-19T14:05:53;28.80;91.20
60293;DHT22;52402;52.670;6.750;2022-08-19T14:08:19;29.00;90.30
60293;DHT22;52402;52.670;6.750;2022-08-19T14:10:45;29.10;89.80
60293;DHT22;52402;52.670;6.750;2022-08-19T14:13:14;29.10;88.20
60293;DHT22;52402;52.670;6.750;2022-08-19T14:15:40;29.30;87.00
60293;DHT22;52402;52.670;6.750;2022-08-19T14:18:05;29.20;84.20
60293;DHT22;52402;52.670;6.750;2022-08-19T14:20:36;29.30;82.90
60293;DHT22;52402;52.670;6.750;2022-08-19T14:23:03;29.30;83.90
60293;DHT22;52402;52.670;6.750;2022-08-19T14:25:31;29.10;84.30
60293;DHT22;52402;52.670;6.750;2022-08-19T14:27:58;29.30;84.40
60293;DHT22;52402;52.670;6.750;2022-08-19T14:30:31;29.30;85.40
60293;DHT22;52402;52.670;6.750;2022-08-19T14:32:59;29.60;84.00
60293;DHT22;52402;52.670;6.750;2022-08-19T14:35:25;29.50;84.10
60293;DHT22;52402;52.670;6.750;2022-08-19T14:37:52;29.80;82.50
60293;DHT22;52402;52.670;6.750;2022-08-19T14:40:22;30.10;82.10
60293;DHT22;52402;52.670;6.750;2022-08-19T14:42:52;30.40;82.60
60293;DHT22;52402;52.670;6.750;2022-08-19T14:45:17;30.70;81.20
60293;DHT22;52402;52.670;6.750;2022-08-19T14:47:43;30.70;81.30
60293;DHT22;52402;52.670;6.750;2022-08-19T14:50:10;30.70;79.60
60293;DHT22;52402;52.670;6.750;2022-08-19T14:52:36;30.70;79.20
60293;DHT22;52402;52.670;6.750;2022-08-19T14:55:04;30.70;79.50
60293;DHT22;52402;52.670;6.750;2022-08-19T14:57:29;30.70;80.60
60293;DHT22;52402;52.670;6.750;2022-08-19T14:59:55;30.70;80.60
60293;DHT22;52402;52.670;6.750;2022-08-19T15:02:22;30.30;80.00
60293;DHT22;52402;52.670;6.750;2022-08-19T15:04:48;30.40;80.70
60293;DHT22;52402;52.670;6.750;2022-08-19T15:07:13;30.40;82.20
60293;DHT22;52402;52.670;6.750;2022-08-19T15:09:39;30.60;82.50
60293;DHT22;52402;52.670;6.750;2022-08-19T15:12:06;30.30;82.30
60293;DHT22;52402;52.670;6.750;2022-08-19T15:14:32;30.30;83.20
60293;DHT22;52402;52.670;6.750;2022-08-19T15:17:03;30.40;83.30
60293;DHT22;52402;52.670;6.750;2022-08-19T15:19:30;30.10;82.10
60293;DHT22;52402;52.670;6.750;2022-08-19T15:21:56;29.40;82.90
60293;DHT22;52402;52.670;6.750;2022-08-19T15:24:22;29.00;83.90
60293;DHT22;52402;52.670;6.750;2022-08-19T15:26:51;28.50;87.20
60293;DHT22;52402;52.670;6.750;2022-08-19T15:29:17;28.20;89.80
60293;DHT22;52402;52.670;6.750;2022-08-19T15:31:42;27.80;90.90
60293;DHT22;52402;52.670;6.750;2022-08-19T15:34:08;27.60;91.70
60293;DHT22;52402;52.670;6.750;2022-08-19T15:36:35;27.30;92.60
60293;DHT22;52402;52.670;6.750;2022-08-19T15:39:01;27.20;93.00
60293;DHT22;52402;52.670;6.750;2022-08-19T15:41:29;27.10;93.50
60293;DHT22;52402;52.670;6.750;2022-08-19T15:44:00;27.10;93.60
60293;DHT22;52402;52.670;6.750;2022-08-19T15:46:31;26.90;94.30